Time;durP1;ratioP1;P1;durP2;ratioP2;P2;SDS_P1;SDS_P2;PMS_P1;PMS_P2;Temp;Humidity;BMP_temperature;BMP_pressure;BME280_temperature;BME280_humidity;BME280_pressure;Samples;Min_cycle;Max_cycle;Signal;HPM_P1;HPM_P2
2021/04/12 00:02:23;;;;;;;21.20;19.67;;;;;;;;;;5095575;28;20547;-74
2021/04/12 00:04:52;;;;;;;20.80;19.60;;;;;;;;;;5095623;28;20193;-74
2021/04/12 00:07:20;;;;;;;20.90;19.50;;;;;;;;;;5095505;28;20191;-74
2021/04/12 00:09:51;;;;;;;19.92;18.83;;;;;;;;;;5095456;28;20532;-73
2021/04/12 00:12:21;;;;;;;19.90;18.75;;;;;;;;;;5095416;28;20194;-74
2021/04/12 00:14:50;;;;;;;20.20;19.10;;;;;;;;;;5095428;28;20211;-74
2021/04/12 00:17:19;;;;;;;20.05;18.85;;;;;;;;;;5095323;28;20275;-74
2021/04/12 00:19:49;;;;;;;20.40;19.10;;;;;;;;;;5093484;28;20228;-74
2021/04/12 00:22:19;;;;;;;21.48;20.20;;;;;;;;;;5094881;28;20183;-74
2021/04/12 00:24:49;;;;;;;20.48;19.20;;;;;;;;;;5094104;28;20191;-73
2021/04/12 00:27:19;;;;;;;20.40;19.20;;;;;;;;;;5093640;28;20206;-74
2021/04/12 00:29:48;;;;;;;20.10;18.95;;;;;;;;;;5095101;28;20183;-73
2021/04/12 00:32:17;;;;;;;20.70;19.48;;;;;;;;;;5094645;28;20550;-74
2021/04/12 00:34:48;;;;;;;20.17;18.83;;;;;;;;;;5094872;27;20613;-73
2021/04/12 00:37:20;;;;;;;19.60;18.50;;;;;;;;;;5094625;28;20191;-74
2021/04/12 00:39:51;;;;;;;20.27;19.17;;;;;;;;;;5094811;28;20625;-74
2021/04/12 00:42:39;;;;;;;20.67;19.30;;;;;;;;;;5094506;28;20630;-74
2021/04/12 00:45:27;;;;;;;20.15;18.85;;;;;;;;;;5090073;28;20211;-74
2021/04/12 00:47:58;;;;;;;19.63;18.40;;;;;;;;;;5090264;28;20571;-74
2021/04/12 00:50:34;;;;;;;20.55;19.50;;;;;;;;;;5094820;28;20192;-73
2021/04/12 00:53:28;;;;;;;20.52;19.30;;;;;;;;;;5093419;28;20240;-74
2021/04/12 00:55:58;;;;;;;20.45;19.35;;;;;;;;;;5094164;28;20231;-74
2021/04/12 00:58:31;;;;;;;20.38;19.17;;;;;;;;;;5093773;28;20243;-74
2021/04/12 01:01:04;;;;;;;19.80;18.73;;;;;;;;;;5094185;28;20244;-73
2021/04/12 01:03:39;;;;;;;20.88;19.67;;;;;;;;;;5092943;28;20702;-73
2021/04/12 01:06:10;;;;;;;20.58;19.48;;;;;;;;;;5094419;28;20237;-74
2021/04/12 01:09:01;;;;;;;21.00;19.60;;;;;;;;;;5094076;28;20196;-74
2021/04/12 01:11:58;;;;;;;20.48;19.15;;;;;;;;;;5094024;28;20665;-74
2021/04/12 01:14:45;;;;;;;20.60;19.40;;;;;;;;;;5093990;28;20650;-74
2021/04/12 01:17:26;;;;;;;20.02;18.73;;;;;;;;;;5093978;28;20233;-74
2021/04/12 01:20:06;;;;;;;21.33;20.02;;;;;;;;;;5091136;28;20237;-74
2021/04/12 01:22:59;;;;;;;19.63;18.50;;;;;;;;;;5094094;28;20183;-73
2021/04/12 01:25:44;;;;;;;20.73;19.20;;;;;;;;;;5094122;28;20187;-73
2021/04/12 01:28:34;;;;;;;21.13;19.60;;;;;;;;;;5093943;28;20199;-74
2021/04/12 01:31:19;;;;;;;20.98;19.67;;;;;;;;;;5094057;28;20199;-73
2021/04/12 01:34:05;;;;;;;20.75;19.25;;;;;;;;;;5093676;28;20540;-74
2021/04/12 01:36:49;;;;;;;20.55;19.25;;;;;;;;;;5093352;28;20260;-73
2021/04/12 01:39:41;;;;;;;20.33;19.08;;;;;;;;;;5093917;28;20218;-74
2021/04/12 01:42:14;;;;;;;21.05;19.85;;;;;;;;;;5093571;28;20199;-74
2021/04/12 01:44:44;;;;;;;20.80;19.50;;;;;;;;;;5093563;28;20195;-73
2021/04/12 01:47:28;;;;;;;20.40;19.20;;;;;;;;;;5093557;28;20637;-73
2021/04/12 01:50:04;;;;;;;20.25;19.10;;;;;;;;;;5093687;28;20612;-74
2021/04/12 01:52:48;;;;;;;20.75;19.10;;;;;;;;;;5093808;28;20187;-73
2021/04/12 01:55:24;;;;;;;21.33;19.65;;;;;;;;;;5063088;28;20219;-74
2021/04/12 01:58:10;;;;;;;20.90;19.50;;;;;;;;;;5093587;28;20195;-74
2021/04/12 02:00:48;;;;;;;20.05;18.95;;;;;;;;;;5093411;28;20199;-73
2021/04/12 02:03:20;;;;;;;21.45;20.10;;;;;;;;;;5093619;28;20188;-74
2021/04/12 02:06:05;;;;;;;20.35;19.15;;;;;;;;;;5093603;28;20578;-74
2021/04/12 02:08:36;;;;;;;20.98;19.58;;;;;;;;;;5093749;28;20188;-74
2021/04/12 02:11:21;;;;;;;21.38;19.88;;;;;;;;;;5093365;28;20186;-74
2021/04/12 02:14:11;;;;;;;20.67;19.50;;;;;;;;;;5093345;28;20192;-74
2021/04/12 02:16:41;;;;;;;21.25;19.88;;;;;;;;;;5093315;28;20208;-74
2021/04/12 02:19:23;;;;;;;20.70;19.30;;;;;;;;;;5093132;28;20695;-74
2021/04/12 02:22:02;;;;;;;21.77;20.52;;;;;;;;;;5093541;28;20675;-74
2021/04/12 02:24:31;;;;;;;21.77;20.25;;;;;;;;;;5093565;28;20192;-74
2021/04/12 02:27:04;;;;;;;21.60;20.20;;;;;;;;;;5093371;28;20191;-74
2021/04/12 02:29:38;;;;;;;20.95;19.85;;;;;;;;;;5093197;28;20195;-74
2021/04/12 02:32:10;;;;;;;21.30;20.00;;;;;;;;;;5093425;28;20187;-74
2021/04/12 02:34:40;;;;;;;21.33;20.02;;;;;;;;;;5093119;28;20188;-74
2021/04/12 02:37:09;;;;;;;21.65;20.40;;;;;;;;;;5093147;28;20192;-74
2021/04/12 02:39:48;;;;;;;21.90;20.60;;;;;;;;;;5093287;28;20224;-74
2021/04/12 02:42:21;;;;;;;20.80;19.60;;;;;;;;;;5093350;28;20202;-74
2021/04/12 02:44:55;;;;;;;20.60;19.50;;;;;;;;;;5093373;28;20183;-74
2021/04/12 02:47:30;;;;;;;21.73;20.23;;;;;;;;;;5095383;28;20214;-74
2021/04/12 02:50:02;;;;;;;21.30;20.02;;;;;;;;;;5096819;28;20198;-73
2021/04/12 02:52:33;;;;;;;21.48;20.05;;;;;;;;;;5096935;28;20190;-74
2021/04/12 02:55:18;;;;;;;22.30;20.75;;;;;;;;;;5096641;28;20565;-74
2021/04/12 02:58:03;;;;;;;21.10;19.95;;;;;;;;;;5096524;28;20675;-74
2021/04/12 03:00:45;;;;;;;20.58;19.38;;;;;;;;;;5066051;28;20205;-74
2021/04/12 03:03:30;;;;;;;20.77;19.42;;;;;;;;;;5096380;28;20236;-74
2021/04/12 03:06:12;;;;;;;21.58;20.30;;;;;;;;;;5096722;28;20244;-74
2021/04/12 03:08:48;;;;;;;21.40;19.92;;;;;;;;;;5096383;28;20641;-74
2021/04/12 03:11:34;;;;;;;24.77;21.58;;;;;;;;;;5096323;28;20552;-74
2021/04/12 03:14:20;;;;;;;21.30;20.00;;;;;;;;;;5096642;28;20289;-74
2021/04/12 03:17:07;;;;;;;21.52;20.23;;;;;;;;;;5096522;28;20190;-74
2021/04/12 03:19:46;;;;;;;21.80;20.50;;;;;;;;;;5091406;28;20226;-74
2021/04/12 03:22:21;;;;;;;22.88;21.30;;;;;;;;;;5096327;28;20190;-74
2021/04/12 03:24:57;;;;;;;22.13;20.73;;;;;;;;;;5096069;28;20219;-74
2021/04/12 03:27:32;;;;;;;22.40;21.00;;;;;;;;;;5094786;28;20648;-74
2021/04/12 03:30:09;;;;;;;22.20;20.80;;;;;;;;;;5096329;28;20221;-74
2021/04/12 03:32:44;;;;;;;21.10;19.80;;;;;;;;;;5095903;28;20278;-74
2021/04/12 03:35:16;;;;;;;22.50;21.13;;;;;;;;;;5096123;28;20198;-74
2021/04/12 03:37:57;;;;;;;21.70;20.20;;;;;;;;;;5095845;28;20567;-74
2021/04/12 03:40:25;;;;;;;22.23;20.58;;;;;;;;;;5096065;28;20186;-74
2021/04/12 03:43:16;;;;;;;22.08;20.60;;;;;;;;;;5095934;28;20194;-74
2021/04/12 03:45:50;;;;;;;22.60;20.80;;;;;;;;;;5080666;28;20200;-74
2021/04/12 03:48:39;;;;;;;22.02;20.63;;;;;;;;;;5095962;28;20240;-74
2021/04/12 03:51:14;;;;;;;21.27;20.10;;;;;;;;;;5095936;28;20186;-74
2021/04/12 03:53:47;;;;;;;21.25;19.85;;;;;;;;;;5095742;28;20198;-74
2021/04/12 03:56:22;;;;;;;21.48;20.27;;;;;;;;;;5095379;28;20198;-75
2021/04/12 03:59:07;;;;;;;21.42;20.13;;;;;;;;;;5094239;28;20229;-74
2021/04/12 04:01:40;;;;;;;21.27;20.08;;;;;;;;;;5094413;28;20640;-74
2021/04/12 04:04:23;;;;;;;22.33;20.92;;;;;;;;;;5095544;28;20187;-73
2021/04/12 04:07:17;;;;;;;22.00;20.80;;;;;;;;;;5094312;28;20203;-74
2021/04/12 04:09:49;;;;;;;22.55;21.25;;;;;;;;;;5095625;28;20266;-74
2021/04/12 04:12:38;;;;;;;21.60;20.38;;;;;;;;;;5094839;28;20286;-74
2021/04/12 04:15:14;;;;;;;22.95;21.65;;;;;;;;;;5095170;28;20252;-74
2021/04/12 04:18:08;;;;;;;22.13;20.83;;;;;;;;;;5095434;28;20188;-74
2021/04/12 04:20:45;;;;;;;21.98;20.73;;;;;;;;;;5094131;28;20220;-74
2021/04/12 04:23:22;;;;;;;21.83;20.63;;;;;;;;;;5093730;28;20201;-74
2021/04/12 04:25:59;;;;;;;21.88;20.40;;;;;;;;;;5095198;28;20191;-74
2021/04/12 04:28:52;;;;;;;23.13;21.60;;;;;;;;;;5094964;28;20183;-74
2021/04/12 04:31:25;;;;;;;23.15;21.50;;;;;;;;;;5032961;28;20602;-74
2021/04/12 04:34:05;;;;;;;23.33;21.80;;;;;;;;;;5016287;28;20228;-74
2021/04/12 04:36:37;;;;;;;22.95;21.55;;;;;;;;;;5032406;28;20192;-74
2021/04/12 04:39:08;;;;;;;22.83;21.52;;;;;;;;;;5032376;28;20221;-74
2021/04/12 04:41:53;;;;;;;23.05;21.52;;;;;;;;;;5032317;28;20201;-74
2021/04/12 04:44:42;;;;;;;23.58;21.98;;;;;;;;;;5023272;28;20212;-74
2021/04/12 04:47:27;;;;;;;24.13;22.67;;;;;;;;;;5015987;28;20201;-74
2021/04/12 04:50:05;;;;;;;24.50;22.60;;;;;;;;;;5032113;28;20235;-74
2021/04/12 04:52:38;;;;;;;23.50;21.90;;;;;;;;;;5032156;28;20193;-74
2021/04/12 04:55:22;;;;;;;23.65;22.00;;;;;;;;;;5031985;28;20309;-74
2021/04/12 04:57:58;;;;;;;22.35;21.02;;;;;;;;;;5031966;28;20231;-74
2021/04/12 05:00:42;;;;;;;23.25;21.77;;;;;;;;;;5032017;28;20656;-74
2021/04/12 05:03:20;;;;;;;22.95;21.55;;;;;;;;;;5022283;28;20224;-74
2021/04/12 05:06:03;;;;;;;22.92;21.52;;;;;;;;;;5032458;28;20205;-74
2021/04/12 05:08:50;;;;;;;23.15;21.40;;;;;;;;;;5094429;28;20195;-74
2021/04/12 05:11:30;;;;;;;24.25;22.45;;;;;;;;;;5093754;28;20186;-74
2021/04/12 05:14:07;;;;;;;24.70;22.83;;;;;;;;;;5094338;28;20188;-74
2021/04/12 05:16:54;;;;;;;24.08;22.15;;;;;;;;;;5094227;28;20567;-74
2021/04/12 05:19:36;;;;;;;23.05;21.50;;;;;;;;;;5088961;28;20230;-74
2021/04/12 05:22:21;;;;;;;23.83;22.05;;;;;;;;;;5093813;28;20248;-74
2021/04/12 05:24:57;;;;;;;23.25;21.30;;;;;;;;;;5094160;28;20601;-74
2021/04/12 05:27:49;;;;;;;24.23;22.30;;;;;;;;;;5094016;28;20183;-76
2021/04/12 05:30:49;;;;;;;23.98;22.15;;;;;;;;;;5093901;28;20188;-72
2021/04/12 05:33:22;;;;;;;24.55;22.75;;;;;;;;;;5093647;28;20690;-72
2021/04/12 05:36:05;;;;;;;23.20;21.60;;;;;;;;;;5093375;28;20548;-72
2021/04/12 05:38:39;;;;;;;23.27;21.88;;;;;;;;;;5093573;28;20207;-72
2021/04/12 05:41:21;;;;;;;25.13;23.63;;;;;;;;;;5094032;28;20187;-72
2021/04/12 05:44:06;;;;;;;24.08;22.38;;;;;;;;;;5093876;28;20187;-72
2021/04/12 05:46:41;;;;;;;23.58;22.27;;;;;;;;;;5093584;28;20194;-72
2021/04/12 05:49:21;;;;;;;24.10;22.40;;;;;;;;;;5093615;28;20632;-72
2021/04/12 05:52:03;;;;;;;23.40;21.95;;;;;;;;;;5093813;28;20187;-72
2021/04/12 05:54:37;;;;;;;23.00;21.45;;;;;;;;;;5080647;28;20316;-71
2021/04/12 05:57:18;;;;;;;24.23;22.50;;;;;;;;;;5093594;28;20199;-71
2021/04/12 06:00:03;;;;;;;24.13;22.70;;;;;;;;;;5093354;28;20231;-72
2021/04/12 06:02:38;;;;;;;23.02;21.63;;;;;;;;;;5093628;28;20263;-72
2021/04/12 06:05:08;;;;;;;23.73;21.85;;;;;;;;;;5093072;28;20202;-80
2021/04/12 06:07:56;;;;;;;25.00;23.30;;;;;;;;;;5094354;28;20191;-72
2021/04/12 06:10:38;;;;;;;24.10;22.40;;;;;;;;;;5093365;28;20203;-71
2021/04/12 06:13:29;;;;;;;23.30;21.52;;;;;;;;;;5093493;28;20183;-72
2021/04/12 06:16:09;;;;;;;22.40;20.98;;;;;;;;;;5093558;28;20192;-72
2021/04/12 06:18:51;;;;;;;24.00;22.40;;;;;;;;;;5093444;28;20222;-71
2021/04/12 06:21:36;;;;;;;22.20;20.88;;;;;;;;;;5093625;28;20193;-72
2021/04/12 06:24:24;;;;;;;22.60;21.10;;;;;;;;;;5097292;28;20248;-72
2021/04/12 06:27:09;;;;;;;23.13;21.60;;;;;;;;;;5097286;28;20321;-72
2021/04/12 06:29:46;;;;;;;23.80;21.90;;;;;;;;;;5096974;28;20187;-72
2021/04/12 06:32:30;;;;;;;22.90;21.45;;;;;;;;;;5096881;28;20191;-72
2021/04/12 06:35:06;;;;;;;22.85;21.15;;;;;;;;;;5097759;28;20302;-72
2021/04/12 06:37:44;;;;;;;22.85;21.30;;;;;;;;;;5097054;28;20192;-72
2021/04/12 06:40:29;;;;;;;22.42;20.88;;;;;;;;;;5097114;28;20220;-72
2021/04/12 06:43:30;;;;;;;23.02;21.42;;;;;;;;;;5096812;28;20191;-71
2021/04/12 06:46:11;;;;;;;22.33;20.83;;;;;;;;;;5097130;28;20185;-72
2021/04/12 06:48:57;;;;;;;24.15;22.05;;;;;;;;;;5097076;28;20549;-71
2021/04/12 06:51:54;;;;;;;22.10;20.60;;;;;;;;;;5096668;28;20560;-71
2021/04/12 06:54:44;;;;;;;23.23;21.67;;;;;;;;;;5034183;28;20236;-71
2021/04/12 06:57:29;;;;;;;22.42;20.75;;;;;;;;;;5034352;28;20272;-71
2021/04/12 07:00:15;;;;;;;23.20;21.40;;;;;;;;;;5034036;28;20268;-75
2021/04/12 07:03:00;;;;;;;22.05;20.85;;;;;;;;;;5034363;28;20203;-76
2021/04/12 07:05:33;;;;;;;22.30;20.65;;;;;;;;;;5034652;28;20251;-75
2021/04/12 07:08:32;;;;;;;23.02;21.42;;;;;;;;;;5034198;28;20189;-76
2021/04/12 07:11:11;;;;;;;22.60;21.02;;;;;;;;;;5034450;28;20260;-81
2021/04/12 07:13:45;;;;;;;22.67;21.20;;;;;;;;;;5033038;28;20625;-78
2021/04/12 07:16:24;;;;;;;22.45;20.92;;;;;;;;;;5034019;28;20652;-79
2021/04/12 07:19:15;;;;;;;23.20;21.80;;;;;;;;;;5033795;28;20254;-77
2021/04/12 07:21:58;;;;;;;23.83;22.38;;;;;;;;;;5033789;28;20210;-76
2021/04/12 07:24:36;;;;;;;21.83;20.38;;;;;;;;;;5017614;28;20248;-77
2021/04/12 07:27:21;;;;;;;22.45;21.10;;;;;;;;;;5033215;28;20339;-74
2021/04/12 07:30:03;;;;;;;23.15;21.40;;;;;;;;;;5096291;28;20579;-76
2021/04/12 07:32:51;;;;;;;23.02;21.27;;;;;;;;;;5095609;28;20242;-75
2021/04/12 07:35:33;;;;;;;22.60;21.20;;;;;;;;;;5095983;28;20189;-76
2021/04/12 07:38:20;;;;;;;21.83;20.30;;;;;;;;;;5083118;28;20246;-74
2021/04/12 07:41:09;;;;;;;22.15;20.85;;;;;;;;;;5096102;28;20189;-76
2021/04/12 07:43:50;;;;;;;22.13;20.73;;;;;;;;;;5096092;28;20195;-77
2021/04/12 07:46:36;;;;;;;23.38;21.88;;;;;;;;;;5095983;28;20219;-76
2021/04/12 07:49:21;;;;;;;23.40;21.60;;;;;;;;;;5095568;28;20638;-77
2021/04/12 07:52:07;;;;;;;22.20;20.60;;;;;;;;;;5095531;28;20183;-76
2021/04/12 07:54:49;;;;;;;22.25;20.65;;;;;;;;;;5095586;28;20240;-77
2021/04/12 07:57:34;;;;;;;22.40;20.75;;;;;;;;;;5094664;28;20191;-77
2021/04/12 08:00:11;;;;;;;23.10;21.50;;;;;;;;;;5095373;28;20219;-77
2021/04/12 08:02:53;;;;;;;21.60;20.30;;;;;;;;;;5094217;28;20673;-77
2021/04/12 08:05:53;;;;;;;23.45;21.73;;;;;;;;;;5094346;28;20189;-77
2021/04/12 08:08:38;;;;;;;23.45;21.63;;;;;;;;;;5095331;28;20192;-77
2021/04/12 08:11:28;;;;;;;22.17;20.77;;;;;;;;;;5095492;28;20204;-79
2021/04/12 08:14:10;;;;;;;21.90;20.20;;;;;;;;;;5095200;28;20203;-77
2021/04/12 08:16:55;;;;;;;22.25;20.35;;;;;;;;;;5095464;28;20196;-77
2021/04/12 08:19:37;;;;;;;21.92;20.52;;;;;;;;;;5094962;28;20686;-77
2021/04/12 08:22:24;;;;;;;22.15;20.75;;;;;;;;;;5094913;28;20549;-77
2021/04/12 08:25:09;;;;;;;21.02;19.80;;;;;;;;;;5095273;28;20195;-77
2021/04/12 08:27:55;;;;;;;20.95;19.65;;;;;;;;;;5095028;28;20184;-77
2021/04/12 08:30:40;;;;;;;19.65;18.50;;;;;;;;;;5095128;28;20188;-77
2021/04/12 08:33:26;;;;;;;20.83;19.52;;;;;;;;;;5094891;28;20191;-77
2021/04/12 08:36:08;;;;;;;21.90;20.55;;;;;;;;;;5094601;28;20227;-78
2021/04/12 08:38:46;;;;;;;20.45;19.15;;;;;;;;;;5094563;28;20192;-77
2021/04/12 08:41:39;;;;;;;21.25;19.85;;;;;;;;;;5094230;28;20200;-77
2021/04/12 08:44:16;;;;;;;22.27;20.77;;;;;;;;;;5094278;28;20250;-78
2021/04/12 08:47:00;;;;;;;22.50;21.10;;;;;;;;;;5094855;28;20207;-77
2021/04/12 08:49:54;;;;;;;23.25;21.60;;;;;;;;;;5064181;28;20200;-78
2021/04/12 08:52:42;;;;;;;21.40;20.08;;;;;;;;;;5080493;28;20239;-78
2021/04/12 08:55:21;;;;;;;21.38;20.10;;;;;;;;;;5093125;28;20227;-78
2021/04/12 08:58:00;;;;;;;22.30;21.00;;;;;;;;;;5094328;28;20192;-77
2021/04/12 09:00:45;;;;;;;21.30;19.90;;;;;;;;;;5094196;28;20219;-79
2021/04/12 09:03:29;;;;;;;21.58;20.30;;;;;;;;;;5094013;28;20222;-76
2021/04/12 09:06:11;;;;;;;22.65;21.15;;;;;;;;;;5094489;28;20189;-77
2021/04/12 09:08:56;;;;;;;21.40;20.20;;;;;;;;;;5061363;28;20202;-76
2021/04/12 09:11:30;;;;;;;22.15;20.73;;;;;;;;;;5094435;28;20198;-77
2021/04/12 09:14:15;;;;;;;21.75;20.23;;;;;;;;;;5094395;28;20192;-76
2021/04/12 09:17:07;;;;;;;22.23;20.60;;;;;;;;;;5053387;28;20250;-76
2021/04/12 09:19:49;;;;;;;20.67;19.45;;;;;;;;;;5094020;28;20302;-77
2021/04/12 09:22:41;;;;;;;21.90;20.70;;;;;;;;;;5094190;28;20204;-79
2021/04/12 09:25:29;;;;;;;22.65;20.85;;;;;;;;;;5079110;28;20204;-78
2021/04/12 09:28:17;;;;;;;22.00;20.60;;;;;;;;;;5093745;28;20250;-77
2021/04/12 09:31:01;;;;;;;21.95;20.45;;;;;;;;;;5093989;28;20189;-77
2021/04/12 09:33:58;;;;;;;21.80;20.30;;;;;;;;;;5084063;28;20221;-77
2021/04/12 09:36:46;;;;;;;21.65;20.23;;;;;;;;;;5031520;28;20203;-77
2021/04/12 09:39:33;;;;;;;20.73;19.52;;;;;;;;;;5031649;28;20241;-76
2021/04/12 09:42:13;;;;;;;22.00;20.35;;;;;;;;;;5025856;28;20203;-74
2021/04/12 09:44:59;;;;;;;21.42;20.02;;;;;;;;;;5031917;28;20207;-74
2021/04/12 09:47:50;;;;;;;21.33;20.13;;;;;;;;;;5031502;28;20676;-74
2021/04/12 09:50:42;;;;;;;21.65;20.33;;;;;;;;;;5030957;28;20205;-75
2021/04/12 09:53:25;;;;;;;22.88;21.20;;;;;;;;;;5031422;28;20659;-75
2021/04/12 09:56:03;;;;;;;21.42;20.13;;;;;;;;;;5032538;28;20235;-75
2021/04/12 09:58:48;;;;;;;21.10;20.00;;;;;;;;;;5035366;28;20206;-74
2021/04/12 10:01:19;;;;;;;22.00;20.70;;;;;;;;;;5035405;28;20195;-74
2021/04/12 10:03:53;;;;;;;22.55;21.08;;;;;;;;;;5035420;28;20207;-75
2021/04/12 10:06:37;;;;;;;22.77;21.15;;;;;;;;;;5035579;28;20204;-75
2021/04/12 10:09:19;;;;;;;20.98;19.67;;;;;;;;;;5035342;28;20195;-75
2021/04/12 10:11:49;;;;;;;21.92;20.63;;;;;;;;;;5095484;28;20200;-74
2021/04/12 10:14:18;;;;;;;23.05;21.40;;;;;;;;;;5097061;28;20201;-75
2021/04/12 10:16:49;;;;;;;23.27;21.77;;;;;;;;;;5097165;28;20277;-75
2021/04/12 10:19:17;;;;;;;20.92;19.77;;;;;;;;;;5096924;28;20232;-75
2021/04/12 10:21:48;;;;;;;21.10;19.85;;;;;;;;;;5097679;28;20193;-75
2021/04/12 10:24:19;;;;;;;20.90;19.75;;;;;;;;;;5098150;28;20202;-75
2021/04/12 10:26:47;;;;;;;20.70;19.42;;;;;;;;;;5097165;28;20563;-75
2021/04/12 10:29:17;;;;;;;20.90;19.70;;;;;;;;;;5097538;28;20198;-76
2021/04/12 10:31:49;;;;;;;20.17;18.85;;;;;;;;;;5097628;28;20197;-75
2021/04/12 10:34:21;;;;;;;21.98;20.67;;;;;;;;;;5097031;28;20183;-75
2021/04/12 10:36:52;;;;;;;21.00;19.80;;;;;;;;;;5097045;28;20550;-75
2021/04/12 10:39:26;;;;;;;21.50;20.30;;;;;;;;;;5097424;28;20313;-75
2021/04/12 10:41:56;;;;;;;21.85;20.65;;;;;;;;;;5097318;28;20189;-75
2021/04/12 10:44:29;;;;;;;21.80;20.60;;;;;;;;;;5097442;28;20243;-75
2021/04/12 10:46:59;;;;;;;22.02;20.63;;;;;;;;;;5097081;28;20188;-75
2021/04/12 10:49:30;;;;;;;21.30;20.10;;;;;;;;;;5096928;28;20540;-76
2021/04/12 10:52:03;;;;;;;22.30;20.80;;;;;;;;;;5096783;28;20201;-72
2021/04/12 10:54:37;;;;;;;21.65;20.35;;;;;;;;;;5096689;28;20291;-71
2021/04/12 10:57:22;;;;;;;21.05;19.80;;;;;;;;;;5096748;28;20189;-71
2021/04/12 10:59:51;;;;;;;22.05;20.65;;;;;;;;;;5086588;28;20694;-71
2021/04/12 11:02:22;;;;;;;21.90;20.30;;;;;;;;;;5096653;28;20189;-71
2021/04/12 11:05:00;;;;;;;20.92;19.63;;;;;;;;;;5096496;28;20284;-71
2021/04/12 11:07:46;;;;;;;23.73;21.48;;;;;;;;;;5095854;28;20220;-71
2021/04/12 11:10:21;;;;;;;21.60;20.40;;;;;;;;;;5096265;28;20605;-70
2021/04/12 11:13:00;;;;;;;21.67;20.48;;;;;;;;;;5096273;28;20188;-71
2021/04/12 11:15:40;;;;;;;20.83;19.73;;;;;;;;;;5096617;28;20192;-71
2021/04/12 11:18:15;;;;;;;20.10;19.00;;;;;;;;;;5096285;28;20762;-71
2021/04/12 11:20:45;;;;;;;19.25;18.15;;;;;;;;;;5095152;28;20220;-71
2021/04/12 11:23:18;;;;;;;18.65;17.73;;;;;;;;;;5096695;28;20196;-71
2021/04/12 11:25:50;;;;;;;19.20;18.20;;;;;;;;;;5096837;28;20220;-71
2021/04/12 11:28:37;;;;;;;18.92;17.92;;;;;;;;;;5096283;28;20189;-71
2021/04/12 11:31:14;;;;;;;19.08;18.08;;;;;;;;;;5091718;28;20211;-71
2021/04/12 11:33:47;;;;;;;19.27;18.17;;;;;;;;;;5096211;28;20199;-71
2021/04/12 11:36:19;;;;;;;18.50;17.60;;;;;;;;;;5094822;28;20193;-77
2021/04/12 11:38:47;;;;;;;19.58;18.58;;;;;;;;;;5096295;28;20189;-78
2021/04/12 11:41:19;;;;;;;19.73;18.38;;;;;;;;;;5096281;28;20189;-71
2021/04/12 11:43:49;;;;;;;19.60;18.60;;;;;;;;;;5095948;28;20194;-72
2021/04/12 11:46:25;;;;;;;20.95;19.75;;;;;;;;;;5096089;28;20224;-72
2021/04/12 11:48:52;;;;;;;22.40;21.02;;;;;;;;;;5095547;28;20195;-71
2021/04/12 11:51:34;;;;;;;20.80;19.50;;;;;;;;;;5095881;28;20193;-72
2021/04/12 11:54:03;;;;;;;21.17;19.98;;;;;;;;;;5095800;28;20215;-70
2021/04/12 11:56:33;;;;;;;20.50;19.40;;;;;;;;;;5096296;28;20197;-71
2021/04/12 11:59:04;;;;;;;21.10;19.90;;;;;;;;;;5095411;28;20183;-71
2021/04/12 12:01:37;;;;;;;21.35;20.15;;;;;;;;;;5095311;28;20549;-71
2021/04/12 12:04:08;;;;;;;20.70;19.40;;;;;;;;;;5095365;28;20199;-72
2021/04/12 12:06:41;;;;;;;22.25;20.75;;;;;;;;;;5094483;28;20196;-71
2021/04/12 12:09:13;;;;;;;21.52;20.10;;;;;;;;;;5094948;28;20548;-71
2021/04/12 12:11:45;;;;;;;20.60;19.40;;;;;;;;;;5093964;28;20197;-71
2021/04/12 12:14:17;;;;;;;21.58;20.10;;;;;;;;;;5095465;28;20205;-71
2021/04/12 12:16:44;;;;;;;21.50;20.30;;;;;;;;;;5095331;28;20204;-71
2021/04/12 12:19:25;;;;;;;21.57;20.27;;;;;;;;;;5092475;28;20226;-71
2021/04/12 12:21:54;;;;;;;22.40;20.85;;;;;;;;;;5095229;28;20461;-71
2021/04/12 12:24:26;;;;;;;22.20;20.90;;;;;;;;;;5094975;28;20676;-71
2021/04/12 12:26:59;;;;;;;21.52;20.23;;;;;;;;;;5094679;28;20193;-71
2021/04/12 12:29:28;;;;;;;22.30;20.63;;;;;;;;;;5095153;28;20663;-71
2021/04/12 12:32:01;;;;;;;21.83;20.52;;;;;;;;;;5094748;28;20191;-71
2021/04/12 12:34:33;;;;;;;21.90;20.63;;;;;;;;;;5094831;28;20216;-70
2021/04/12 12:37:05;;;;;;;22.58;21.30;;;;;;;;;;5093786;28;20201;-71
2021/04/12 12:39:36;;;;;;;22.65;21.25;;;;;;;;;;5094967;28;20221;-71
2021/04/12 12:42:05;;;;;;;22.30;20.90;;;;;;;;;;5094514;28;20647;-71
2021/04/12 12:44:33;;;;;;;22.75;21.20;;;;;;;;;;5094818;28;20247;-71
2021/04/12 12:47:06;;;;;;;21.27;19.88;;;;;;;;;;5094088;28;20202;-71
2021/04/12 12:49:34;;;;;;;22.80;21.40;;;;;;;;;;5094714;28;20709;-71
2021/04/12 12:52:03;;;;;;;21.98;20.58;;;;;;;;;;5094433;28;20768;-71
2021/04/12 12:54:31;;;;;;;21.67;20.37;;;;;;;;;;5094266;28;20229;-71
2021/04/12 12:57:02;;;;;;;21.80;20.50;;;;;;;;;;5094449;28;20895;-71
2021/04/12 12:59:32;;;;;;;21.55;20.25;;;;;;;;;;5094474;28;20217;-71
2021/04/12 13:02:11;;;;;;;23.02;21.50;;;;;;;;;;5094613;28;20532;-71
2021/04/12 13:04:38;;;;;;;23.20;21.70;;;;;;;;;;5094117;28;20531;-71
2021/04/12 13:07:13;;;;;;;22.27;20.92;;;;;;;;;;5093259;28;20209;-71
2021/04/12 13:09:52;;;;;;;22.55;21.15;;;;;;;;;;5094170;28;20630;-71
2021/04/12 13:12:19;;;;;;;22.75;21.35;;;;;;;;;;5094415;28;20216;-71
2021/04/12 13:14:49;;;;;;;23.55;22.15;;;;;;;;;;5094045;28;20198;-71
2021/04/12 13:17:17;;;;;;;23.60;22.10;;;;;;;;;;5094270;28;20213;-71
2021/04/12 13:19:45;;;;;;;24.47;22.80;;;;;;;;;;5093904;28;20237;-71
2021/04/12 13:22:19;;;;;;;22.17;20.88;;;;;;;;;;5093892;28;20445;-71
2021/04/12 13:24:46;;;;;;;22.23;20.75;;;;;;;;;;5093970;28;20214;-71
2021/04/12 13:27:14;;;;;;;21.20;20.00;;;;;;;;;;5093729;28;20634;-72
2021/04/12 13:29:44;;;;;;;22.23;20.55;;;;;;;;;;5093824;28;20190;-73
2021/04/12 13:32:13;;;;;;;21.88;20.58;;;;;;;;;;5093713;28;20193;-71
2021/04/12 13:34:44;;;;;;;21.50;20.30;;;;;;;;;;5094171;28;20196;-71
2021/04/12 13:37:13;;;;;;;20.73;19.63;;;;;;;;;;5093563;28;20678;-71
2021/04/12 13:39:42;;;;;;;22.13;20.83;;;;;;;;;;5093465;28;20569;-71
2021/04/12 13:42:12;;;;;;;21.25;20.05;;;;;;;;;;5093593;28;20239;-71
2021/04/12 13:44:44;;;;;;;22.10;20.77;;;;;;;;;;5093706;28;20188;-71
2021/04/12 13:47:15;;;;;;;21.40;20.20;;;;;;;;;;5093781;28;20194;-71
2021/04/12 13:49:43;;;;;;;20.90;19.70;;;;;;;;;;5093519;28;20657;-71
2021/04/12 13:52:13;;;;;;;22.90;21.38;;;;;;;;;;5093705;28;20220;-71
2021/04/12 13:54:43;;;;;;;22.35;20.85;;;;;;;;;;5093345;28;20228;-71
2021/04/12 13:57:15;;;;;;;21.90;20.38;;;;;;;;;;5093661;28;20188;-71
2021/04/12 13:59:44;;;;;;;20.80;19.60;;;;;;;;;;5093715;28;20220;-70
2021/04/12 14:02:17;;;;;;;20.90;19.80;;;;;;;;;;5093683;28;20228;-72
2021/04/12 14:04:47;;;;;;;20.85;19.65;;;;;;;;;;5093616;28;20189;-71
2021/04/12 14:07:17;;;;;;;20.63;19.45;;;;;;;;;;5093766;28;20226;-71
2021/04/12 14:09:48;;;;;;;21.90;20.60;;;;;;;;;;5093753;28;20185;-70
2021/04/12 14:12:18;;;;;;;20.73;19.63;;;;;;;;;;5093272;28;20181;-71
2021/04/12 14:14:48;;;;;;;21.35;19.95;;;;;;;;;;5093433;28;20248;-70
2021/04/12 14:17:21;;;;;;;21.80;20.55;;;;;;;;;;5093597;28;20194;-70
2021/04/12 14:19:51;;;;;;;20.90;19.80;;;;;;;;;;5093469;28;20227;-71
2021/04/12 14:22:20;;;;;;;20.38;19.38;;;;;;;;;;5093314;28;20253;-71
2021/04/12 14:24:49;;;;;;;20.58;19.48;;;;;;;;;;5093545;28;20223;-71
2021/04/12 14:27:21;;;;;;;21.50;20.20;;;;;;;;;;5093382;28;20184;-71
2021/04/12 14:29:50;;;;;;;22.27;20.98;;;;;;;;;;5093623;28;20189;-71
2021/04/12 14:32:20;;;;;;;20.50;19.30;;;;;;;;;;5093391;28;20660;-71
2021/04/12 14:34:50;;;;;;;20.77;19.67;;;;;;;;;;5093397;28;20190;-71
2021/04/12 14:37:24;;;;;;;19.90;18.80;;;;;;;;;;5093376;28;20188;-71
2021/04/12 14:39:52;;;;;;;20.45;19.35;;;;;;;;;;5093308;28;20223;-71
2021/04/12 14:42:20;;;;;;;21.10;19.80;;;;;;;;;;5093877;28;20221;-71
2021/04/12 14:44:50;;;;;;;21.98;20.60;;;;;;;;;;5096901;28;20684;-71
2021/04/12 14:47:22;;;;;;;22.42;21.13;;;;;;;;;;5097192;28;20184;-71
2021/04/12 14:49:52;;;;;;;21.85;20.60;;;;;;;;;;5096815;28;20197;-71
2021/04/12 14:52:31;;;;;;;21.50;20.20;;;;;;;;;;5097008;28;20191;-71
2021/04/12 14:55:03;;;;;;;21.35;20.15;;;;;;;;;;5096239;28;20255;-70
2021/04/12 14:57:34;;;;;;;21.58;20.23;;;;;;;;;;5096530;28;20203;-70
2021/04/12 15:00:10;;;;;;;21.52;19.92;;;;;;;;;;5096937;28;20225;-72
2021/04/12 15:02:39;;;;;;;22.63;21.33;;;;;;;;;;5096594;28;20656;-71
2021/04/12 15:05:07;;;;;;;21.50;20.27;;;;;;;;;;5096798;28;20197;-69
2021/04/12 15:07:38;;;;;;;21.42;20.02;;;;;;;;;;5096803;28;20186;-69
2021/04/12 15:10:08;;;;;;;21.50;20.20;;;;;;;;;;5096883;28;20220;-69
2021/04/12 15:12:36;;;;;;;20.88;19.77;;;;;;;;;;5096324;28;20205;-69
2021/04/12 15:15:05;;;;;;;21.95;20.63;;;;;;;;;;5096566;28;20229;-69
2021/04/12 15:17:35;;;;;;;21.48;20.27;;;;;;;;;;5096517;28;20221;-68